createdAt,value
2018-11-21T00:00:26.267Z,13.40
2018-11-21T00:02:56.352Z,13.40
2018-11-21T00:05:26.723Z,13.40
2018-11-21T00:07:56.873Z,13.40
2018-11-21T00:10:27.482Z,13.50
2018-11-21T00:12:58.264Z,13.60
2018-11-21T00:15:28.470Z,13.60
2018-11-21T00:17:58.680Z,13.60
2018-11-21T00:20:28.930Z,13.50
2018-11-21T00:22:59.042Z,13.50
2018-11-21T00:25:29.167Z,13.50
2018-11-21T00:27:59.184Z,13.50
2018-11-21T00:30:29.203Z,13.50
2018-11-21T00:32:59.386Z,13.50
2018-11-21T00:35:29.486Z,13.40
2018-11-21T00:37:59.718Z,13.50
2018-11-21T00:40:29.870Z,13.40
2018-11-21T00:42:59.897Z,13.50
2018-11-21T00:45:30.248Z,13.50
2018-11-21T00:48:00.169Z,13.50
2018-11-21T00:50:30.388Z,13.50
2018-11-21T00:53:00.365Z,13.50
2018-11-21T00:55:30.777Z,13.50
2018-11-21T00:58:00.933Z,13.50
2018-11-21T01:00:30.981Z,13.60
2018-11-21T01:03:01.242Z,13.60
2018-11-21T01:05:31.299Z,13.60
2018-11-21T01:08:01.531Z,13.60
2018-11-21T01:10:31.664Z,13.60
2018-11-21T01:13:01.791Z,13.70
2018-11-21T01:15:32.036Z,13.70
2018-11-21T01:18:02.077Z,13.80
2018-11-21T01:20:32.373Z,13.90
2018-11-21T01:23:02.577Z,13.90
2018-11-21T01:25:32.683Z,13.90
2018-11-21T01:28:02.652Z,13.90
2018-11-21T01:30:32.656Z,14.00
2018-11-21T01:33:09.382Z,13.90
2018-11-21T01:35:32.971Z,13.90
2018-11-21T01:38:03.289Z,13.80
2018-11-21T01:40:33.607Z,13.80
2018-11-21T01:43:03.605Z,13.80
2018-11-21T01:45:33.872Z,13.80
2018-11-21T01:48:04.130Z,13.90
2018-11-21T01:50:34.479Z,13.80
2018-11-21T01:53:04.746Z,13.90
2018-11-21T01:55:35.010Z,13.90
2018-11-21T01:58:04.948Z,14.00
2018-11-21T02:00:35.156Z,14.10
2018-11-21T02:03:05.301Z,14.10
2018-11-21T02:05:35.505Z,14.20
2018-11-21T02:08:05.716Z,14.20
2018-11-21T02:10:35.860Z,14.10
2018-11-21T02:13:06.036Z,14.00
2018-11-21T02:15:36.217Z,14.10
2018-11-21T02:18:06.534Z,14.00
2018-11-21T02:20:36.713Z,14.10
2018-11-21T02:23:06.973Z,14.10
2018-11-21T02:25:37.118Z,14.10
2018-11-21T02:28:07.430Z,14.10
2018-11-21T02:30:37.852Z,14.10
2018-11-21T02:33:08.031Z,14.20
2018-11-21T02:35:38.252Z,14.20
2018-11-21T02:38:08.194Z,14.20
2018-11-21T02:40:38.294Z,14.20
2018-11-21T02:43:08.345Z,14.10
2018-11-21T02:45:38.975Z,14.00
2018-11-21T02:48:08.987Z,14.00
2018-11-21T02:50:39.009Z,14.00
2018-11-21T02:53:09.296Z,14.00
2018-11-21T02:55:39.636Z,14.00
2018-11-21T02:58:09.839Z,14.00
2018-11-21T03:00:40.105Z,14.00
2018-11-21T03:03:10.595Z,14.10
2018-11-21T03:05:40.757Z,14.10
2018-11-21T03:08:10.935Z,14.20
2018-11-21T03:10:41.488Z,14.20
2018-11-21T03:13:11.866Z,14.10
2018-11-21T03:15:41.900Z,14.00
2018-11-21T03:18:12.020Z,14.00
2018-11-21T03:20:42.123Z,14.00
2018-11-21T03:23:12.468Z,13.90
2018-11-21T03:25:42.610Z,13.90
2018-11-21T03:28:12.734Z,13.80
2018-11-21T03:30:42.978Z,13.80
2018-11-21T03:33:13.403Z,13.70
2018-11-21T03:35:43.829Z,13.70
2018-11-21T03:38:14.108Z,13.70
2018-11-21T03:40:44.323Z,13.70
2018-11-21T03:43:14.383Z,13.70
2018-11-21T03:45:44.578Z,13.70
2018-11-21T03:48:14.881Z,13.70
2018-11-21T03:50:45.028Z,13.70
2018-11-21T03:53:15.095Z,13.60
2018-11-21T03:55:45.654Z,13.70
2018-11-21T03:58:15.859Z,13.70
2018-11-21T04:00:45.963Z,13.80
2018-11-21T04:03:16.080Z,13.80
2018-11-21T04:05:46.450Z,13.80
2018-11-21T04:08:16.475Z,13.80
2018-11-21T04:10:46.906Z,13.80
2018-11-21T04:13:17.128Z,13.80
2018-11-21T04:15:47.514Z,13.80
2018-11-21T04:18:17.642Z,13.90
2018-11-21T04:20:48.001Z,13.80
2018-11-21T04:23:18.592Z,13.80
2018-11-21T04:25:48.862Z,13.90
2018-11-21T04:28:19.445Z,14.00
2018-11-21T04:30:49.471Z,14.00
2018-11-21T04:33:19.977Z,13.90
2018-11-21T04:35:50.511Z,14.00
2018-11-21T04:38:20.834Z,14.00
2018-11-21T04:40:51.583Z,14.10
2018-11-21T04:43:21.791Z,14.20
2018-11-21T04:45:52.328Z,14.10
2018-11-21T04:48:22.577Z,14.10
2018-11-21T04:50:52.771Z,14.00
2018-11-21T04:53:23.071Z,14.10
2018-11-21T04:55:53.250Z,14.00
2018-11-21T04:58:23.610Z,14.10
2018-11-21T05:00:53.693Z,14.20
2018-11-21T05:03:23.991Z,14.20
2018-11-21T05:05:54.297Z,14.20
2018-11-21T05:08:24.297Z,14.20
2018-11-21T05:10:54.451Z,14.10
2018-11-21T05:13:24.522Z,14.10
2018-11-21T05:15:54.689Z,14.10
2018-11-21T05:18:24.742Z,14.10
2018-11-21T05:20:54.893Z,14.20
2018-11-21T05:23:25.308Z,14.20
2018-11-21T05:25:55.486Z,14.20
2018-11-21T05:28:25.680Z,14.10
2018-11-21T05:30:55.821Z,14.10
2018-11-21T05:33:27.413Z,14.10
2018-11-21T05:35:57.840Z,14.10
2018-11-21T05:38:27.778Z,14.10
2018-11-21T05:40:57.884Z,14.20
2018-11-21T05:43:27.949Z,14.30
2018-11-21T05:45:58.166Z,14.30
2018-11-21T05:48:28.559Z,14.40
2018-11-21T05:50:58.881Z,14.40
2018-11-21T05:53:29.528Z,14.50
2018-11-21T05:55:59.723Z,14.50
2018-11-21T05:58:30.210Z,14.60
2018-11-21T06:01:00.371Z,14.70
2018-11-21T06:03:30.840Z,14.70
2018-11-21T06:06:01.281Z,14.60
2018-11-21T06:08:31.306Z,14.60
2018-11-21T06:11:01.543Z,14.50
2018-11-21T06:13:31.734Z,14.60
2018-11-21T06:16:02.060Z,14.80
2018-11-21T06:18:32.031Z,15.00
2018-11-21T06:21:02.456Z,15.10
2018-11-21T06:23:32.602Z,15.30
2018-11-21T06:26:02.773Z,15.50
2018-11-21T06:28:33.423Z,15.70
2018-11-21T06:31:03.790Z,15.90
2018-11-21T06:33:33.915Z,16.00
2018-11-21T06:36:04.219Z,16.10
2018-11-21T06:38:34.302Z,16.20
2018-11-21T06:41:04.635Z,16.20
2018-11-21T06:43:34.809Z,16.30
2018-11-21T06:46:05.068Z,16.30
2018-11-21T06:48:36.438Z,16.40
2018-11-21T06:51:07.531Z,16.40
2018-11-21T06:53:38.826Z,16.40
2018-11-21T06:56:09.387Z,16.40
2018-11-21T06:58:40.706Z,16.40
2018-11-21T07:01:12.087Z,16.50
2018-11-21T07:03:44.929Z,16.50
2018-11-21T07:06:15.675Z,16.60
2018-11-21T07:08:46.523Z,16.60
2018-11-21T07:11:19.222Z,16.70
2018-11-21T07:13:50.544Z,16.80
2018-11-21T07:16:20.943Z,17.00
2018-11-21T07:18:51.180Z,17.20
2018-11-21T07:21:21.704Z,17.50
2018-11-21T07:23:54.085Z,18.00
2018-11-21T07:26:26.147Z,18.20
2018-11-21T07:28:57.975Z,18.50
2018-11-21T07:31:30.496Z,18.70
2018-11-21T07:34:01.983Z,18.90
2018-11-21T07:36:34.204Z,19.10
2018-11-21T07:39:06.048Z,19.20
2018-11-21T07:41:39.223Z,19.00
2018-11-21T07:44:11.211Z,18.80
2018-11-21T07:46:42.597Z,18.60
2018-11-21T07:49:13.569Z,18.40
2018-11-21T07:51:44.270Z,18.20
2018-11-21T07:54:15.118Z,18.10
2018-11-21T07:57:13.339Z,17.90
2018-11-21T08:00:20.637Z,17.70
2018-11-21T08:02:50.872Z,17.60
2018-11-21T08:05:25.283Z,17.50
2018-11-21T08:08:01.928Z,17.40
2018-11-21T08:11:01.755Z,17.50
2018-11-21T08:13:53.796Z,17.50
2018-11-21T08:16:42.812Z,17.50
2018-11-21T08:19:34.545Z,17.40
2018-11-21T08:22:20.036Z,17.40
2018-11-21T08:25:13.701Z,17.40
2018-11-21T08:28:05.820Z,17.40
2018-11-21T08:30:36.466Z,17.40
2018-11-21T08:33:06.465Z,17.40
2018-11-21T08:35:36.759Z,17.50
2018-11-21T08:38:07.049Z,17.50
2018-11-21T08:40:37.323Z,17.50
2018-11-21T08:43:08.165Z,17.40
2018-11-21T08:45:38.356Z,17.50
2018-11-21T08:48:08.952Z,17.50
2018-11-21T08:50:39.452Z,17.60
2018-11-21T08:53:09.517Z,17.60
2018-11-21T08:55:39.760Z,17.60
2018-11-21T08:58:10.809Z,17.50
2018-11-21T09:00:42.344Z,17.50
2018-11-21T09:03:12.503Z,17.50
2018-11-21T09:05:43.680Z,17.60
2018-11-21T09:08:13.841Z,17.60
2018-11-21T09:10:44.088Z,17.60
2018-11-21T09:13:14.659Z,17.60
2018-11-21T09:15:44.924Z,17.60
2018-11-21T09:18:15.081Z,17.50
2018-11-21T09:20:45.454Z,17.50
2018-11-21T09:23:15.411Z,17.50
2018-11-21T09:25:45.843Z,17.50
2018-11-21T09:28:16.039Z,17.30
2018-11-21T09:30:46.126Z,17.30
2018-11-21T09:33:16.230Z,17.30
2018-11-21T09:35:46.770Z,17.30
2018-11-21T09:38:16.874Z,17.30
2018-11-21T09:40:46.957Z,17.30
2018-11-21T09:43:17.068Z,17.30
2018-11-21T09:45:47.322Z,17.40
2018-11-21T09:48:17.425Z,17.40
2018-11-21T09:50:47.514Z,17.40
2018-11-21T09:53:17.780Z,17.50
2018-11-21T09:55:48.333Z,17.70
2018-11-21T09:58:19.003Z,17.80
2018-11-21T10:01:25.572Z,17.80
2018-11-21T10:03:58.857Z,17.90
2018-11-21T10:06:27.899Z,18.00
2018-11-21T10:08:59.819Z,18.10
2018-11-21T10:11:30.752Z,18.20
2018-11-21T10:14:00.823Z,18.30
2018-11-21T10:16:30.909Z,18.40
2018-11-21T10:19:01.418Z,18.50
2018-11-21T10:21:33.481Z,18.50
2018-11-21T10:24:03.794Z,18.50
2018-11-21T10:26:33.808Z,18.50
2018-11-21T10:29:03.855Z,18.50
2018-11-21T10:31:33.978Z,18.60
2018-11-21T10:34:04.064Z,18.50
2018-11-21T10:36:34.103Z,18.40
2018-11-21T10:39:05.718Z,18.40
2018-11-21T10:41:35.830Z,18.30
2018-11-21T10:44:06.076Z,18.30
2018-11-21T10:46:36.362Z,18.30
2018-11-21T10:49:07.096Z,18.30
2018-11-21T10:51:37.506Z,18.30
2018-11-21T10:54:07.779Z,18.30
2018-11-21T10:56:37.865Z,18.20
2018-11-21T10:59:08.117Z,18.30
2018-11-21T11:01:55.676Z,18.30
2018-11-21T11:07:33.800Z,18.40
2018-11-21T11:10:28.387Z,18.50
2018-11-21T11:13:24.173Z,18.60
2018-11-21T11:16:12.078Z,18.60
2018-11-21T11:19:10.070Z,18.60
2018-11-21T11:21:58.005Z,18.70
2018-11-21T11:25:02.194Z,18.70
2018-11-21T11:28:10.306Z,18.80
2018-11-21T11:31:17.018Z,18.80
2018-11-21T11:33:58.265Z,18.80
2018-11-21T11:36:36.902Z,18.80
2018-11-21T11:39:23.658Z,18.90
2018-11-21T11:42:15.976Z,19.00
2018-11-21T11:45:04.187Z,18.90
2018-11-21T11:47:52.200Z,18.90
2018-11-21T11:50:39.800Z,18.80
2018-11-21T11:53:31.476Z,18.80
2018-11-21T11:56:23.460Z,18.70
2018-11-21T11:59:27.349Z,18.60
2018-11-21T12:02:31.193Z,18.60
2018-11-21T12:05:22.984Z,18.50
2018-11-21T12:08:17.674Z,18.40
2018-11-21T12:11:06.826Z,18.20
2018-11-21T12:13:54.523Z,18.30
2018-11-21T12:16:42.517Z,18.10
2018-11-21T12:19:31.659Z,17.80
2018-11-21T12:22:29.784Z,17.60
2018-11-21T12:25:21.693Z,17.50
2018-11-21T12:28:19.925Z,17.30
2018-11-21T12:31:09.292Z,17.30
2018-11-21T12:33:56.995Z,17.30
2018-11-21T12:36:46.104Z,17.20
2018-11-21T12:39:47.274Z,17.20
2018-11-21T12:42:42.664Z,17.30
2018-11-21T12:45:30.958Z,17.30
2018-11-21T12:48:28.993Z,17.60
2018-11-21T12:51:18.117Z,17.40
2018-11-21T12:54:10.065Z,17.30
2018-11-21T12:56:54.797Z,17.40
2018-11-21T12:59:56.342Z,17.40
2018-11-21T13:02:38.242Z,17.30
2018-11-21T13:05:39.839Z,17.20
2018-11-21T13:08:44.107Z,17.30
2018-11-21T13:11:31.902Z,17.60
2018-11-21T13:14:19.635Z,17.70
2018-11-21T13:17:00.949Z,17.70
2018-11-21T13:19:49.999Z,17.70
2018-11-21T13:22:56.959Z,17.80
2018-11-21T13:25:44.862Z,18.10
2018-11-21T13:28:45.978Z,18.30
2018-11-21T13:31:44.149Z,18.20
2018-11-21T13:34:31.497Z,18.20
2018-11-21T13:37:09.268Z,18.40
2018-11-21T13:39:58.498Z,18.40
2018-11-21T13:42:56.576Z,18.40
2018-11-21T13:45:48.528Z,18.40
2018-11-21T13:48:35.994Z,18.30
2018-11-21T13:51:37.166Z,18.20
2018-11-21T13:54:41.884Z,18.10
2018-11-21T13:57:12.140Z,18.00
2018-11-21T13:59:42.170Z,17.90
2018-11-21T14:02:12.289Z,17.90
2018-11-21T14:04:42.300Z,17.80
2018-11-21T14:07:13.016Z,17.80
2018-11-21T14:09:43.177Z,17.70
2018-11-21T14:12:13.317Z,17.60
2018-11-21T14:14:43.299Z,17.50
2018-11-21T14:17:13.522Z,17.30
2018-11-21T14:19:43.528Z,17.20
2018-11-21T14:22:14.092Z,17.20
2018-11-21T14:25:03.335Z,17.10
2018-11-21T14:27:33.603Z,17.00
2018-11-21T14:30:03.513Z,16.80
2018-11-21T14:32:33.913Z,16.80
2018-11-21T14:35:03.933Z,16.80
2018-11-21T14:37:34.130Z,16.80
2018-11-21T14:40:04.270Z,16.70
2018-11-21T14:42:34.259Z,16.60
2018-11-21T14:45:04.527Z,16.50
2018-11-21T14:47:34.940Z,16.50
2018-11-21T14:50:10.643Z,16.40
2018-11-21T14:52:49.783Z,16.30
2018-11-21T14:55:20.538Z,16.20
2018-11-21T14:57:51.275Z,16.20
2018-11-21T15:00:22.050Z,16.20
2018-11-21T15:02:52.294Z,16.10
2018-11-21T15:05:22.256Z,16.10
2018-11-21T15:07:52.582Z,16.10
2018-11-21T15:10:22.673Z,16.10
2018-11-21T15:12:53.037Z,16.00
2018-11-21T15:15:24.654Z,16.00
2018-11-21T15:17:54.771Z,15.90
2018-11-21T15:20:25.726Z,15.80
2018-11-21T15:22:56.344Z,15.80
2018-11-21T15:25:26.317Z,15.90
2018-11-21T15:27:56.506Z,15.80
2018-11-21T15:30:28.722Z,15.70
2018-11-21T15:32:59.096Z,15.60
2018-11-21T15:35:30.663Z,15.60
2018-11-21T15:38:00.875Z,15.70
2018-11-21T15:40:31.107Z,15.70
2018-11-21T15:43:01.322Z,15.60
2018-11-21T15:45:31.659Z,15.60
2018-11-21T15:48:02.702Z,15.50
2018-11-21T15:50:33.517Z,15.50
2018-11-21T15:53:04.315Z,15.50
2018-11-21T15:55:34.803Z,15.40
2018-11-21T15:58:05.166Z,15.40
2018-11-21T16:00:36.440Z,15.40
2018-11-21T16:03:08.017Z,15.40
2018-11-21T16:05:38.773Z,15.30
2018-11-21T16:08:10.409Z,15.30
2018-11-21T16:10:42.405Z,15.20
2018-11-21T16:13:12.602Z,15.20
2018-11-21T16:15:47.522Z,15.20
2018-11-21T16:18:18.510Z,15.20
2018-11-21T16:20:48.890Z,15.10
2018-11-21T16:23:19.056Z,15.10
2018-11-21T16:25:49.204Z,15.10
2018-11-21T16:28:19.574Z,15.00
2018-11-21T16:30:49.920Z,14.90
2018-11-21T16:33:20.028Z,14.80
2018-11-21T16:35:50.143Z,14.80
2018-11-21T16:38:20.370Z,14.70
2018-11-21T16:40:50.527Z,14.80
2018-11-21T16:43:20.713Z,14.70
2018-11-21T16:45:52.894Z,14.70
2018-11-21T16:48:22.946Z,14.70
2018-11-21T16:50:53.252Z,14.70
2018-11-21T16:53:23.459Z,14.60
2018-11-21T16:55:53.631Z,14.70
2018-11-21T16:58:23.839Z,14.70
2018-11-21T17:00:54.092Z,14.70
2018-11-21T17:03:24.160Z,14.60
2018-11-21T17:05:54.350Z,14.60
2018-11-21T17:08:24.352Z,14.60
2018-11-21T17:10:54.774Z,14.60
2018-11-21T17:13:24.727Z,14.60
2018-11-21T17:15:55.416Z,14.70
2018-11-21T17:18:25.893Z,14.80
2018-11-21T17:20:56.200Z,14.90
2018-11-21T17:23:26.029Z,14.80
2018-11-21T17:25:56.171Z,14.80
2018-11-21T17:28:26.437Z,14.80
2018-11-21T17:30:56.622Z,14.80
2018-11-21T17:33:27.150Z,14.90
2018-11-21T17:35:57.264Z,14.80
2018-11-21T17:38:33.416Z,14.80
